Time;durP1;ratioP1;P1;durP2;ratioP2;P2;SDS_P1;SDS_P2;PMS_P1;PMS_P2;Temp;Humidity;BMP_temperature;BMP_pressure;BME280_temperature;BME280_humidity;BME280_pressure;Samples;Min_cycle;Max_cycle;Signal;HPM_P1;HPM_P2
2022/11/26 00:00:17;;;;;;;22.43;10.93;;;5.20;99.90;;;;;;5087618;28;20326;-82
2022/11/26 00:02:44;;;;;;;21.93;10.97;;;5.20;99.90;;;;;;5075940;28;20219;-82
2022/11/26 00:05:13;;;;;;;23.53;11.53;;;5.00;99.90;;;;;;5082906;28;20258;-82
2022/11/26 00:07:41;;;;;;;19.90;10.67;;;5.10;99.90;;;;;;5068066;28;20260;-82
2022/11/26 00:10:19;;;;;;;24.77;11.50;;;5.20;99.90;;;;;;5068692;28;20229;-82
2022/11/26 00:12:46;;;;;;;21.60;11.33;;;5.20;99.90;;;;;;5069486;28;20194;-82
2022/11/26 00:15:19;;;;;;;21.23;11.60;;;5.30;99.90;;;;;;5069009;28;20347;-82
2022/11/26 00:17:46;;;;;;;24.83;10.87;;;5.20;99.90;;;;;;5067168;28;20367;-81
2022/11/26 00:20:13;;;;;;;21.07;10.47;;;5.00;99.90;;;;;;5067278;28;20301;-81
2022/11/26 00:22:43;;;;;;;22.77;10.67;;;5.00;99.90;;;;;;5076680;28;20225;-82
2022/11/26 00:25:15;;;;;;;23.70;11.60;;;5.00;99.90;;;;;;5077006;28;20294;-82
2022/11/26 00:27:43;;;;;;;21.23;10.20;;;4.90;99.90;;;;;;5067711;28;20293;-82
2022/11/26 00:30:19;;;;;;;25.10;10.63;;;5.00;99.90;;;;;;5082900;28;20305;-82
2022/11/26 00:32:46;;;;;;;19.93;10.33;;;4.90;99.90;;;;;;5087135;28;20262;-82
2022/11/26 00:35:13;;;;;;;22.40;11.07;;;4.80;99.90;;;;;;5088748;28;20267;-82
2022/11/26 00:37:44;;;;;;;22.67;11.20;;;5.00;99.90;;;;;;5079572;28;20249;-82
2022/11/26 00:40:22;;;;;;;19.70;10.50;;;4.90;99.90;;;;;;5068459;28;20187;-82
2022/11/26 00:42:50;;;;;;;23.00;11.20;;;4.80;99.90;;;;;;5078522;28;20290;-82
2022/11/26 00:45:19;;;;;;;26.23;11.93;;;4.80;99.90;;;;;;5068760;28;20209;-82
2022/11/26 00:47:46;;;;;;;24.27;10.80;;;4.90;99.90;;;;;;5066454;28;20290;-82
2022/11/26 00:50:20;;;;;;;22.03;12.10;;;4.90;99.90;;;;;;5067900;28;20206;-82
2022/11/26 00:52:48;;;;;;;28.73;13.50;;;4.80;99.90;;;;;;5069199;28;20167;-82
2022/11/26 00:55:28;;;;;;;24.80;12.53;;;5.10;99.90;;;;;;5069282;28;20762;-82
2022/11/26 00:57:57;;;;;;;23.47;13.07;;;5.10;99.90;;;;;;5069246;28;20286;-81
2022/11/26 01:00:25;;;;;;;26.13;13.13;;;5.00;99.90;;;;;;5069666;28;20630;-82
2022/11/26 01:02:53;;;;;;;24.93;12.30;;;5.00;99.90;;;;;;5069842;28;20251;-82
2022/11/26 01:05:21;;;;;;;23.17;11.73;;;4.90;99.90;;;;;;5074006;28;20216;-82
2022/11/26 01:07:48;;;;;;;24.87;12.87;;;5.10;99.90;;;;;;5084402;28;20234;-82
2022/11/26 01:10:18;;;;;;;28.27;13.43;;;4.80;99.90;;;;;;5069220;28;20233;-82
2022/11/26 01:12:45;;;;;;;24.13;12.80;;;5.00;99.90;;;;;;5068195;28;20237;-82
2022/11/26 01:15:13;;;;;;;22.93;12.43;;;5.10;99.90;;;;;;5074960;28;20222;-82
2022/11/26 01:17:41;;;;;;;22.53;11.87;;;5.00;99.90;;;;;;5087724;28;20294;-82
2022/11/26 01:20:20;;;;;;;28.07;12.07;;;4.80;99.90;;;;;;5087437;28;20236;-82
2022/11/26 01:22:47;;;;;;;22.50;12.03;;;4.90;99.90;;;;;;5068449;28;20245;-82
2022/11/26 01:25:14;;;;;;;28.50;13.27;;;4.90;99.90;;;;;;5068485;28;20266;-82
2022/11/26 01:27:42;;;;;;;23.63;12.27;;;5.00;99.90;;;;;;5068272;28;20270;-82
2022/11/26 01:30:25;;;;;;;24.93;13.47;;;4.90;99.90;;;;;;5068362;28;20297;-82
2022/11/26 01:32:52;;;;;;;19.73;11.40;;;5.10;99.90;;;;;;5068117;28;20211;-82
2022/11/26 01:35:21;;;;;;;24.77;12.60;;;5.10;99.90;;;;;;5068496;28;20249;-82
2022/11/26 01:37:48;;;;;;;24.27;11.67;;;5.10;99.90;;;;;;5068049;28;20290;-82
2022/11/26 01:40:45;;;;;;;22.60;11.00;;;5.10;99.90;;;;;;5068309;28;20235;-82
2022/11/26 01:43:19;;;;;;;22.20;11.17;;;5.00;99.90;;;;;;5065493;28;20219;-82
2022/11/26 01:45:48;;;;;;;21.07;11.47;;;5.20;99.90;;;;;;5068430;28;20239;-82
2022/11/26 01:48:29;;;;;;;22.60;10.13;;;5.10;99.90;;;;;;5067833;28;20322;-82
2022/11/26 01:51:00;;;;;;;22.60;11.33;;;5.00;99.90;;;;;;5068190;28;20230;-82
2022/11/26 01:53:32;;;;;;;23.93;10.97;;;5.00;99.90;;;;;;5067841;28;20647;-82
2022/11/26 01:56:03;;;;;;;20.33;10.37;;;5.20;99.90;;;;;;5068333;28;20613;-82
2022/11/26 01:58:34;;;;;;;22.03;11.00;;;5.00;99.90;;;;;;5067488;28;20258;-82
2022/11/26 02:01:02;;;;;;;21.60;11.40;;;5.20;99.90;;;;;;5067468;28;20647;-82
2022/11/26 02:03:34;;;;;;;19.87;10.03;;;5.10;99.90;;;;;;5083217;28;20249;-82
2022/11/26 02:06:05;;;;;;;21.87;10.57;;;5.00;99.90;;;;;;5075098;28;20485;-82
2022/11/26 02:08:34;;;;;;;16.70;9.83;;;4.80;99.90;;;;;;5068493;28;20305;-82
2022/11/26 02:11:12;;;;;;;20.27;9.63;;;4.80;99.90;;;;;;5072396;28;20232;-83
2022/11/26 02:13:39;;;;;;;22.10;9.17;;;4.80;99.90;;;;;;5067923;28;20266;-82
2022/11/26 02:16:13;;;;;;;29.23;15.70;;;4.70;99.90;;;;;;5067289;28;20655;-82
2022/11/26 02:18:49;;;;;;;23.03;12.33;;;4.70;99.90;;;;;;5070074;28;20349;-82
2022/11/26 02:21:25;;;;;;;19.40;10.37;;;4.70;99.90;;;;;;5091516;28;20224;-82
2022/11/26 02:24:17;;;;;;;21.60;9.33;;;4.60;99.90;;;;;;5093067;28;20266;-82
2022/11/26 02:27:09;;;;;;;25.13;10.17;;;4.60;99.90;;;;;;5081957;28;20196;-82
2022/11/26 02:30:08;;;;;;;20.47;9.77;;;4.60;99.90;;;;;;5076632;28;20306;-82
2022/11/26 02:32:57;;;;;;;21.77;9.97;;;4.40;99.90;;;;;;5085654;28;20254;-82
2022/11/26 02:35:30;;;;;;;21.23;10.47;;;4.60;99.90;;;;;;5077396;28;20205;-82
2022/11/26 02:38:01;;;;;;;19.60;9.23;;;4.40;99.90;;;;;;5079440;28;20254;-81
2022/11/26 02:40:28;;;;;;;21.43;9.93;;;4.50;99.90;;;;;;5065472;28;20192;-82
2022/11/26 02:42:55;;;;;;;24.73;11.37;;;4.50;99.90;;;;;;5068143;28;20295;-82
2022/11/26 02:45:27;;;;;;;21.20;11.97;;;4.70;99.90;;;;;;5068560;28;20209;-82
2022/11/26 02:47:56;;;;;;;26.93;12.17;;;4.70;99.90;;;;;;5066031;28;20294;-83
2022/11/26 02:50:27;;;;;;;24.63;11.23;;;4.70;99.90;;;;;;5064069;28;20203;-82
2022/11/26 02:52:56;;;;;;;23.30;11.40;;;4.80;99.90;;;;;;5064111;28;20670;-83
2022/11/26 02:55:27;;;;;;;19.47;10.07;;;4.60;99.90;;;;;;5065367;28;20289;-83
2022/11/26 02:57:55;;;;;;;21.67;9.90;;;4.40;99.90;;;;;;5065211;28;20327;-83
2022/11/26 03:00:24;;;;;;;20.73;10.00;;;4.40;99.90;;;;;;5065573;28;20266;-83
2022/11/26 03:02:58;;;;;;;24.40;10.57;;;4.40;99.90;;;;;;5065281;28;20223;-82
2022/11/26 03:05:27;;;;;;;24.63;10.80;;;4.30;99.90;;;;;;5065888;28;20287;-82
2022/11/26 03:07:55;;;;;;;23.87;10.43;;;4.30;99.90;;;;;;5065565;28;20688;-82
2022/11/26 03:10:26;;;;;;;22.33;10.30;;;4.30;99.90;;;;;;5065708;28;20297;-82
2022/11/26 03:12:52;;;;;;;19.53;9.83;;;4.10;99.90;;;;;;5065149;28;20183;-82
2022/11/26 03:15:19;;;;;;;20.77;9.93;;;4.30;99.90;;;;;;5064927;28;20203;-82
2022/11/26 03:17:48;;;;;;;19.23;9.30;;;4.20;99.90;;;;;;5064739;28;20223;-82
2022/11/26 03:20:15;;;;;;;21.40;10.23;;;4.00;99.90;;;;;;5064657;28;20202;-83
2022/11/26 03:22:42;;;;;;;19.10;10.57;;;4.10;99.90;;;;;;5065527;28;20222;-83
2022/11/26 03:25:09;;;;;;;25.00;10.90;;;4.10;99.90;;;;;;5064640;28;20203;-82
2022/11/26 03:27:36;;;;;;;24.50;10.20;;;4.10;99.90;;;;;;5065545;28;20210;-82
2022/11/26 03:30:03;;;;;;;21.57;10.00;;;4.10;99.90;;;;;;5063828;28;20199;-82
2022/11/26 03:32:30;;;;;;;23.30;10.43;;;4.10;99.90;;;;;;5064345;28;20286;-82
2022/11/26 03:34:58;;;;;;;24.57;10.87;;;4.20;99.90;;;;;;5064151;28;20285;-83
2022/11/26 03:37:25;;;;;;;24.37;10.90;;;4.10;99.90;;;;;;5064161;28;20214;-82
2022/11/26 03:39:52;;;;;;;20.67;10.40;;;4.20;99.90;;;;;;5064518;28;20298;-82
2022/11/26 03:42:19;;;;;;;22.30;11.03;;;4.20;99.90;;;;;;5064101;28;20223;-82
2022/11/26 03:44:46;;;;;;;22.60;10.63;;;4.10;99.90;;;;;;5064917;28;20214;-83
2022/11/26 03:47:12;;;;;;;20.07;10.67;;;4.20;99.90;;;;;;5063307;28;20278;-84
2022/11/26 03:49:39;;;;;;;22.20;10.23;;;4.10;99.90;;;;;;5064907;28;20287;-83
2022/11/26 03:52:07;;;;;;;24.80;11.43;;;4.00;99.90;;;;;;5064113;28;20289;-82
2022/11/26 03:54:34;;;;;;;21.17;8.60;;;4.00;99.90;;;;;;5064616;28;20230;-82
2022/11/26 03:57:01;;;;;;;24.43;11.63;;;3.90;99.90;;;;;;5064911;28;20281;-82
2022/11/26 03:59:28;;;;;;;20.90;10.33;;;4.00;99.90;;;;;;5063855;28;20231;-82
2022/11/26 04:01:55;;;;;;;24.80;10.03;;;4.00;99.90;;;;;;5064563;28;20211;-82
2022/11/26 04:04:21;;;;;;;20.97;9.10;;;4.10;99.90;;;;;;5081593;28;20198;-82
2022/11/26 04:06:48;;;;;;;23.20;10.20;;;4.00;99.90;;;;;;5092633;28;20279;-82
2022/11/26 04:09:16;;;;;;;25.27;10.27;;;3.90;99.90;;;;;;5092976;28;20221;-83
2022/11/26 04:11:43;;;;;;;21.53;9.90;;;3.90;99.90;;;;;;5103290;28;20288;-82
2022/11/26 04:14:10;;;;;;;20.67;8.97;;;3.80;99.90;;;;;;5101977;28;20261;-82
2022/11/26 04:16:37;;;;;;;22.23;9.73;;;3.80;99.90;;;;;;5102640;28;20209;-82
2022/11/26 04:19:04;;;;;;;25.63;10.23;;;4.00;99.90;;;;;;5103004;28;20301;-82
2022/11/26 04:21:30;;;;;;;25.33;10.63;;;4.20;99.90;;;;;;5101555;28;20208;-82
2022/11/26 04:23:57;;;;;;;24.67;10.60;;;4.00;99.90;;;;;;5101348;28;20221;-82
2022/11/26 04:26:25;;;;;;;24.43;10.23;;;4.30;99.90;;;;;;5102799;28;20216;-82
2022/11/26 04:28:52;;;;;;;21.53;9.03;;;4.20;99.90;;;;;;5102461;28;20239;-82
2022/11/26 04:31:19;;;;;;;25.97;10.20;;;4.00;99.90;;;;;;5103144;28;20221;-82
2022/11/26 04:33:46;;;;;;;25.63;11.47;;;4.00;99.90;;;;;;5101516;28;20592;-82
2022/11/26 04:36:13;;;;;;;20.60;9.30;;;4.00;99.90;;;;;;5083223;28;20210;-80
2022/11/26 04:38:40;;;;;;;23.60;9.97;;;4.10;99.90;;;;;;5093358;28;20285;-82
2022/11/26 04:41:09;;;;;;;22.20;9.30;;;4.30;99.90;;;;;;5101012;28;20267;-81
2022/11/26 04:43:38;;;;;;;22.93;10.20;;;4.00;99.90;;;;;;5089458;28;20238;-82
2022/11/26 04:46:05;;;;;;;24.17;9.30;;;3.90;99.90;;;;;;5090862;28;20267;-82
2022/11/26 04:48:31;;;;;;;21.83;10.83;;;3.90;99.90;;;;;;5082703;28;20318;-82
2022/11/26 04:50:58;;;;;;;20.70;10.23;;;4.10;99.90;;;;;;5072204;28;20227;-82
2022/11/26 04:53:25;;;;;;;24.73;11.13;;;4.30;99.90;;;;;;5071263;28;20246;-82
2022/11/26 04:55:53;;;;;;;22.87;10.93;;;4.40;99.90;;;;;;5071534;28;20263;-82
2022/11/26 04:58:20;;;;;;;22.33;10.63;;;4.60;99.90;;;;;;5069044;28;20286;-82
2022/11/26 05:00:49;;;;;;;23.63;10.60;;;4.40;99.90;;;;;;5066743;28;20270;-82
2022/11/26 05:03:16;;;;;;;26.13;10.87;;;4.20;99.90;;;;;;5066580;28;20282;-82
2022/11/26 05:05:43;;;;;;;26.60;11.17;;;4.20;99.90;;;;;;5066282;28;20266;-82
2022/11/26 05:08:10;;;;;;;27.43;11.50;;;4.40;99.90;;;;;;5066031;28;20314;-82
2022/11/26 05:10:37;;;;;;;24.97;11.00;;;4.40;99.90;;;;;;5065573;28;20669;-82
2022/11/26 05:13:03;;;;;;;25.93;11.63;;;4.50;99.90;;;;;;5069002;28;20294;-82
2022/11/26 05:15:30;;;;;;;25.70;12.00;;;4.40;99.90;;;;;;5089955;28;20200;-82
2022/11/26 05:17:58;;;;;;;27.07;10.70;;;4.50;99.90;;;;;;5103336;28;20229;-82
2022/11/26 05:20:25;;;;;;;24.90;10.17;;;4.80;99.90;;;;;;5093591;28;20202;-82
2022/11/26 05:22:52;;;;;;;21.60;9.90;;;4.70;99.90;;;;;;5086373;28;20222;-82
2022/11/26 05:25:19;;;;;;;29.60;10.77;;;4.60;99.90;;;;;;5088206;28;20202;-82
2022/11/26 05:27:46;;;;;;;23.93;10.23;;;4.40;99.90;;;;;;5098404;28;20288;-82
2022/11/26 05:30:13;;;;;;;22.67;9.37;;;4.20;99.90;;;;;;5097871;28;20205;-82
2022/11/26 05:32:40;;;;;;;22.27;10.10;;;4.00;99.90;;;;;;5106762;28;20254;-82
2022/11/26 05:35:09;;;;;;;22.37;9.47;;;4.10;99.90;;;;;;5081110;28;20294;-82
2022/11/26 05:37:36;;;;;;;22.60;9.70;;;4.20;99.90;;;;;;5066093;28;20275;-82
2022/11/26 05:40:04;;;;;;;27.80;10.50;;;4.00;99.90;;;;;;5066315;28;20370;-82
2022/11/26 05:42:31;;;;;;;21.80;9.43;;;4.20;99.90;;;;;;5065429;28;20210;-82
2022/11/26 05:44:58;;;;;;;21.40;9.10;;;4.00;99.90;;;;;;5086978;28;20240;-82
2022/11/26 05:47:25;;;;;;;25.07;9.13;;;4.20;99.90;;;;;;5105917;28;20244;-82
2022/11/26 05:49:51;;;;;;;19.13;9.63;;;4.30;99.90;;;;;;5078375;28;20267;-82
2022/11/26 05:52:20;;;;;;;25.47;11.47;;;4.80;99.90;;;;;;5065751;28;20281;-82
2022/11/26 05:54:47;;;;;;;23.80;9.70;;;4.70;99.90;;;;;;5074863;28;20243;-82
2022/11/26 05:57:14;;;;;;;26.40;10.37;;;4.80;99.90;;;;;;5089848;28;20204;-82
2022/11/26 05:59:40;;;;;;;21.07;9.73;;;4.80;99.90;;;;;;5094859;28;20309;-81
2022/11/26 06:02:07;;;;;;;22.93;9.77;;;4.70;99.90;;;;;;5076469;28;20278;-81
2022/11/26 06:04:34;;;;;;;26.73;9.67;;;4.70;99.90;;;;;;5066570;28;20225;-81
2022/11/26 06:07:01;;;;;;;19.87;9.70;;;4.90;99.90;;;;;;5073467;28;20286;-81
2022/11/26 06:09:29;;;;;;;25.60;10.53;;;4.70;99.90;;;;;;5064016;28;20303;-81
2022/11/26 06:11:56;;;;;;;20.83;9.87;;;4.70;99.90;;;;;;5069385;28;20267;-81
2022/11/26 06:14:23;;;;;;;24.27;9.57;;;4.70;99.90;;;;;;5074938;28;20259;-81
2022/11/26 06:16:49;;;;;;;25.47;8.83;;;4.50;99.90;;;;;;5062420;28;20211;-81
2022/11/26 06:19:16;;;;;;;19.53;9.17;;;4.50;99.90;;;;;;5085764;28;20254;-82
2022/11/26 06:21:43;;;;;;;22.43;8.83;;;4.40;99.90;;;;;;5069508;28;20285;-82
2022/11/26 06:24:10;;;;;;;21.03;8.87;;;4.40;99.90;;;;;;5085552;28;20226;-82
2022/11/26 06:26:38;;;;;;;19.83;9.87;;;4.30;99.90;;;;;;5096592;28;20224;-82
2022/11/26 06:29:05;;;;;;;25.03;11.10;;;4.30;99.90;;;;;;5086507;28;20313;-82
2022/11/26 06:31:32;;;;;;;23.67;9.70;;;4.60;99.90;;;;;;5091705;28;20206;-81
2022/11/26 06:33:59;;;;;;;24.70;9.47;;;4.50;99.90;;;;;;5077306;28;20230;-81
2022/11/26 06:36:26;;;;;;;26.23;9.07;;;4.40;99.90;;;;;;5090430;28;20202;-80
2022/11/26 06:38:53;;;;;;;20.90;8.93;;;4.30;99.90;;;;;;5073968;28;20222;-80
2022/11/26 06:41:20;;;;;;;24.17;10.77;;;4.10;99.90;;;;;;5087346;28;20238;-82
2022/11/26 06:43:48;;;;;;;25.57;9.77;;;4.30;99.90;;;;;;5072905;28;20261;-82
2022/11/26 06:46:15;;;;;;;22.37;9.80;;;4.50;99.90;;;;;;5083610;28;20294;-81
2022/11/26 06:48:45;;;;;;;21.63;10.43;;;4.70;99.90;;;;;;5093237;28;20225;-81
2022/11/26 06:51:15;;;;;;;25.20;9.83;;;4.40;99.90;;;;;;5088701;28;20228;-81
2022/11/26 06:53:42;;;;;;;21.93;9.10;;;4.30;99.90;;;;;;5056829;28;20286;-81
2022/11/26 06:56:12;;;;;;;22.97;12.63;;;4.30;99.90;;;;;;5064346;28;20209;-81
2022/11/26 06:58:39;;;;;;;23.67;9.87;;;4.30;99.90;;;;;;5078075;28;20217;-81
2022/11/26 07:01:09;;;;;;;19.47;8.43;;;4.10;99.90;;;;;;5069745;28;20201;-81
2022/11/26 07:03:37;;;;;;;19.73;8.77;;;3.90;99.90;;;;;;5081003;28;20217;-80
2022/11/26 07:06:03;;;;;;;17.63;8.13;;;4.00;99.90;;;;;;5067622;28;20203;-80
2022/11/26 07:08:30;;;;;;;23.93;9.10;;;4.10;99.90;;;;;;5085935;28;20218;-80
2022/11/26 07:11:03;;;;;;;22.80;9.87;;;4.30;99.90;;;;;;5075870;28;20288;-81
2022/11/26 07:13:31;;;;;;;21.27;8.97;;;4.10;99.90;;;;;;5082735;28;20208;-80
2022/11/26 07:16:02;;;;;;;21.33;8.87;;;4.20;99.90;;;;;;5074809;28;20199;-81
2022/11/26 07:18:30;;;;;;;20.33;9.33;;;4.10;99.90;;;;;;5068795;28;20219;-81
2022/11/26 07:20:58;;;;;;;22.13;9.97;;;3.90;99.90;;;;;;5078262;28;20213;-81
2022/11/26 07:23:24;;;;;;;19.67;8.83;;;4.30;99.90;;;;;;5066018;28;20231;-81
2022/11/26 07:25:51;;;;;;;24.60;10.13;;;4.30;99.90;;;;;;5066956;28;20242;-81
2022/11/26 07:28:18;;;;;;;24.30;10.03;;;4.40;99.90;;;;;;5074135;28;20226;-80
2022/11/26 07:30:45;;;;;;;26.40;10.27;;;4.30;99.90;;;;;;5072725;28;20281;-80
2022/11/26 07:33:12;;;;;;;19.77;9.30;;;4.40;99.90;;;;;;5075978;28;20209;-80
2022/11/26 07:35:40;;;;;;;19.50;8.13;;;4.10;99.90;;;;;;5073478;28;20217;-80
2022/11/26 07:38:07;;;;;;;22.10;9.20;;;4.10;99.90;;;;;;5076851;28;20236;-80
2022/11/26 07:40:34;;;;;;;25.50;8.80;;;4.10;99.90;;;;;;5067117;28;20205;-80
2022/11/26 07:43:01;;;;;;;22.43;9.73;;;4.20;99.90;;;;;;5075371;28;20203;-80
2022/11/26 07:45:28;;;;;;;23.73;10.93;;;4.40;99.90;;;;;;5060225;28;20203;-80
2022/11/26 07:47:55;;;;;;;24.30;9.53;;;4.60;99.90;;;;;;5068952;28;20230;-80
2022/11/26 07:50:22;;;;;;;25.80;10.17;;;4.70;99.90;;;;;;5065706;28;20195;-80
2022/11/26 07:52:52;;;;;;;33.87;11.17;;;5.00;99.90;;;;;;5063804;28;20199;-80
2022/11/26 07:55:18;;;;;;;24.47;10.20;;;4.70;99.90;;;;;;5067701;28;20318;-80
2022/11/26 07:57:45;;;;;;;22.17;10.47;;;5.00;99.90;;;;;;5066215;28;20205;-80
2022/11/26 08:00:13;;;;;;;31.40;11.80;;;5.10;99.90;;;;;;5072669;28;20641;-80
2022/11/26 08:02:40;;;;;;;22.90;10.93;;;5.30;99.90;;;;;;5066930;28;20208;-80
2022/11/26 08:05:08;;;;;;;28.60;12.10;;;5.30;99.90;;;;;;5064044;28;20231;-80
2022/11/26 08:07:35;;;;;;;32.70;10.43;;;5.30;99.90;;;;;;5078898;28;20200;-80
2022/11/26 08:10:04;;;;;;;26.97;10.77;;;5.40;99.90;;;;;;5073638;28;20214;-81
2022/11/26 08:12:31;;;;;;;29.90;11.30;;;5.40;99.90;;;;;;5061121;28;20206;-81
2022/11/26 08:14:58;;;;;;;28.17;11.27;;;5.40;99.90;;;;;;5066068;28;20566;-81
2022/11/26 08:17:25;;;;;;;26.77;10.97;;;5.40;99.90;;;;;;5067643;28;20284;-81
2022/11/26 08:19:51;;;;;;;26.20;10.67;;;5.70;99.90;;;;;;5062236;28;20199;-81
2022/11/26 08:22:18;;;;;;;25.13;10.90;;;6.20;99.90;;;;;;5073735;28;20298;-81
2022/11/26 08:24:45;;;;;;;25.30;10.40;;;6.30;99.90;;;;;;5066935;28;20343;-81
2022/11/26 08:27:13;;;;;;;23.07;10.70;;;6.60;99.90;;;;;;5057699;28;20199;-81
2022/11/26 08:29:40;;;;;;;28.53;10.73;;;6.60;99.90;;;;;;5076260;28;20221;-81
2022/11/26 08:32:07;;;;;;;26.93;11.00;;;6.70;99.90;;;;;;5065157;28;20198;-80
2022/11/26 08:34:34;;;;;;;28.47;10.40;;;6.50;99.90;;;;;;5055304;28;20201;-80
2022/11/26 08:37:02;;;;;;;25.23;10.80;;;6.60;99.90;;;;;;5068157;28;20464;-81
2022/11/26 08:39:28;;;;;;;26.10;10.23;;;6.60;99.90;;;;;;5064404;28;20297;-81
2022/11/26 08:41:55;;;;;;;29.63;11.40;;;6.60;99.90;;;;;;5059681;28;20561;-81
2022/11/26 08:44:23;;;;;;;26.93;10.90;;;6.80;99.90;;;;;;5066044;28;20234;-81
2022/11/26 08:46:50;;;;;;;28.60;11.30;;;6.80;99.90;;;;;;5065202;28;20213;-81
2022/11/26 08:49:17;;;;;;;25.10;11.60;;;7.00;99.90;;;;;;5068861;28;20226;-81
2022/11/26 08:51:44;;;;;;;25.87;12.37;;;7.40;99.90;;;;;;5064887;28;20619;-81
2022/11/26 08:54:11;;;;;;;28.23;11.30;;;7.40;99.90;;;;;;5071944;28;20195;-81
2022/11/26 08:56:38;;;;;;;35.30;12.73;;;7.40;99.90;;;;;;5067054;28;20206;-81
2022/11/26 08:59:05;;;;;;;28.67;12.27;;;7.60;99.90;;;;;;5062010;28;20237;-81
2022/11/26 09:01:34;;;;;;;35.23;13.00;;;7.70;99.90;;;;;;5068197;28;20198;-83
2022/11/26 09:04:02;;;;;;;26.27;11.77;;;7.90;99.90;;;;;;5068359;28;20222;-82
2022/11/26 09:06:31;;;;;;;27.07;11.40;;;8.00;99.90;;;;;;5058384;28;20206;-82
2022/11/26 09:09:12;;;;;;;33.33;12.43;;;8.20;99.90;;;;;;5062905;28;20249;-82
2022/11/26 09:11:41;;;;;;;36.07;13.43;;;8.30;99.90;;;;;;5059415;28;20211;-81
2022/11/26 09:14:10;;;;;;;33.37;13.70;;;8.60;99.90;;;;;;5065672;28;20584;-82
2022/11/26 09:16:38;;;;;;;29.57;13.00;;;8.60;99.90;;;;;;5063106;28;20214;-81
2022/11/26 09:19:07;;;;;;;35.27;13.47;;;9.30;99.90;;;;;;5072190;28;20218;-82
2022/11/26 09:21:34;;;;;;;27.90;12.93;;;9.60;99.90;;;;;;5070876;28;20654;-81
2022/11/26 09:24:01;;;;;;;28.70;13.17;;;9.90;99.90;;;;;;5066236;28;20218;-82
2022/11/26 09:26:30;;;;;;;29.60;14.40;;;9.50;99.90;;;;;;5062135;28;20210;-82
2022/11/26 09:28:57;;;;;;;32.13;13.93;;;9.10;99.90;;;;;;5062384;28;20222;-82
2022/11/26 09:31:24;;;;;;;30.17;13.87;;;9.10;99.90;;;;;;5056461;28;20679;-81
2022/11/26 09:33:54;;;;;;;28.73;12.87;;;9.20;99.90;;;;;;5062088;28;20202;-81
2022/11/26 09:36:21;;;;;;;32.00;12.50;;;9.20;99.90;;;;;;5070935;28;20206;-82
2022/11/26 09:38:48;;;;;;;29.30;11.97;;;9.10;99.90;;;;;;5068803;28;20775;-82
2022/11/26 09:41:30;;;;;;;31.93;13.20;;;9.20;99.90;;;;;;5070008;28;20195;-81
2022/11/26 09:44:14;;;;;;;28.63;12.67;;;9.20;99.90;;;;;;5069295;28;20232;-82
2022/11/26 09:46:47;;;;;;;28.93;12.53;;;9.40;99.90;;;;;;5051988;28;20294;-82
2022/11/26 09:49:17;;;;;;;29.40;13.20;;;9.40;99.90;;;;;;5063470;28;20214;-82
2022/11/26 09:51:48;;;;;;;31.03;12.67;;;9.60;99.90;;;;;;5067415;28;20214;-81
2022/11/26 09:54:18;;;;;;;37.80;14.47;;;9.60;99.90;;;;;;5055760;28;20551;-82
2022/11/26 09:56:46;;;;;;;30.87;13.83;;;9.70;99.90;;;;;;5050877;28;20285;-82
2022/11/26 09:59:17;;;;;;;29.90;13.80;;;9.90;99.90;;;;;;5064557;28;20312;-82
2022/11/26 10:01:44;;;;;;;28.77;13.70;;;9.90;99.90;;;;;;5066427;28;20296;-79
2022/11/26 10:04:23;;;;;;;28.03;12.80;;;10.10;99.90;;;;;;5064112;28;20256;-80
2022/11/26 10:07:01;;;;;;;31.77;13.63;;;10.30;99.90;;;;;;5064448;28;20206;-80
2022/11/26 10:09:38;;;;;;;27.63;13.07;;;10.30;99.90;;;;;;5073159;28;20221;-82
2022/11/26 10:12:14;;;;;;;31.17;14.50;;;10.10;99.90;;;;;;5062689;28;20203;-82
2022/11/26 10:14:51;;;;;;;28.53;13.17;;;10.00;99.90;;;;;;5062174;28;20198;-81
2022/11/26 10:17:29;;;;;;;32.20;14.07;;;10.00;99.90;;;;;;5066835;28;20206;-81
2022/11/26 10:20:28;;;;;;;29.07;13.37;;;9.70;99.90;;;;;;5071331;28;20311;-81
2022/11/26 10:23:02;;;;;;;26.73;11.97;;;9.50;99.90;;;;;;5077618;28;20212;-81
2022/11/26 10:25:33;;;;;;;26.50;12.07;;;9.30;99.90;;;;;;5073992;28;20223;-81
2022/11/26 10:28:03;;;;;;;26.17;11.77;;;9.20;99.90;;;;;;5063466;28;20283;-81
2022/11/26 10:30:31;;;;;;;26.20;11.93;;;9.30;99.90;;;;;;5070491;28;20204;-81
2022/11/26 10:33:02;;;;;;;31.97;12.67;;;9.40;99.90;;;;;;5065961;28;20565;-82
2022/11/26 10:35:31;;;;;;;27.17;12.03;;;9.40;99.90;;;;;;5062251;28;20618;-81
2022/11/26 10:37:59;;;;;;;26.93;13.47;;;9.40;99.90;;;;;;5074484;28;20716;-81
2022/11/26 10:40:28;;;;;;;31.17;12.67;;;9.40;99.90;;;;;;5086938;28;20608;-81
2022/11/26 10:43:03;;;;;;;30.70;14.40;;;9.30;99.90;;;;;;5069934;28;20230;-81
2022/11/26 10:45:37;;;;;;;30.53;14.50;;;9.30;99.90;;;;;;5076535;28;20217;-81
2022/11/26 10:48:24;;;;;;;28.83;13.67;;;9.20;99.90;;;;;;5082648;28;20257;-81
2022/11/26 10:51:13;;;;;;;33.13;15.57;;;9.20;99.90;;;;;;5064214;28;20207;-81
2022/11/26 10:53:52;;;;;;;33.73;13.80;;;9.30;99.90;;;;;;5073075;28;20194;-81
2022/11/26 10:56:21;;;;;;;34.93;16.80;;;9.30;99.90;;;;;;5074994;28;20256;-81
2022/11/26 10:58:50;;;;;;;35.17;16.77;;;9.40;99.90;;;;;;5077304;28;20709;-81
2022/11/26 11:01:18;;;;;;;37.00;16.80;;;9.40;99.90;;;;;;5071631;28;20203;-81
2022/11/26 11:03:50;;;;;;;34.17;16.33;;;9.40;99.90;;;;;;5079623;28;20273;-81
2022/11/26 11:06:43;;;;;;;36.73;14.77;;;9.50;99.90;;;;;;5076909;28;20237;-81
2022/11/26 11:09:26;;;;;;;31.27;14.83;;;9.40;99.90;;;;;;5086447;28;20225;-81
2022/11/26 11:12:16;;;;;;;33.67;15.43;;;9.40;99.90;;;;;;5080550;28;20518;-81
2022/11/26 11:14:45;;;;;;;29.23;14.50;;;9.40;99.90;;;;;;5067252;28;20744;-81
2022/11/26 11:17:30;;;;;;;42.30;15.10;;;9.40;99.90;;;;;;5074119;28;20625;-82
2022/11/26 11:19:59;;;;;;;31.43;14.83;;;9.30;99.90;;;;;;5074432;28;20205;-82
2022/11/26 11:22:28;;;;;;;36.13;15.57;;;9.40;99.90;;;;;;5072200;28;20208;-82
2022/11/26 11:24:56;;;;;;;39.43;16.17;;;9.50;99.90;;;;;;5073149;28;20228;-82
2022/11/26 11:27:25;;;;;;;36.20;15.57;;;9.50;99.90;;;;;;5078990;28;20277;-82
2022/11/26 11:29:52;;;;;;;34.97;17.33;;;9.70;99.90;;;;;;5068712;28;20198;-82
2022/11/26 11:32:34;;;;;;;32.37;15.27;;;9.90;99.90;;;;;;5062190;28;20297;-82
2022/11/26 11:35:24;;;;;;;29.67;14.23;;;9.80;99.90;;;;;;5071923;28;20205;-83
2022/11/26 11:37:54;;;;;;;36.60;15.87;;;9.80;99.90;;;;;;5073979;28;20226;-82
2022/11/26 11:40:26;;;;;;;31.87;14.57;;;10.00;99.90;;;;;;5071019;28;20202;-80
2022/11/26 11:42:57;;;;;;;29.83;14.47;;;10.20;99.90;;;;;;5077644;28;20278;-82
2022/11/26 11:45:32;;;;;;;31.40;14.73;;;10.60;99.90;;;;;;5077602;28;20308;-82
2022/11/26 11:48:15;;;;;;;31.70;14.57;;;11.40;99.90;;;;;;5069357;28;20556;-82
2022/11/26 11:50:47;;;;;;;32.13;14.20;;;11.60;99.90;;;;;;5067513;28;20210;-82
2022/11/26 11:53:34;;;;;;;30.97;13.83;;;11.20;99.90;;;;;;5071024;28;20294;-83
2022/11/26 11:56:17;;;;;;;28.70;13.83;;;11.00;99.90;;;;;;5065000;28;20206;-82
2022/11/26 11:59:46;;;;;;;27.00;13.23;;;11.00;99.90;;;;;;5069885;28;20218;-80
2022/11/26 12:02:39;;;;;;;28.93;13.23;;;10.80;99.90;;;;;;5023176;28;20561;-81
2022/11/26 12:05:29;;;;;;;29.63;14.07;;;10.50;99.90;;;;;;5063472;28;20225;-81
2022/11/26 12:08:06;;;;;;;29.63;13.30;;;10.30;99.90;;;;;;5073127;28;20225;-81
2022/11/26 12:10:42;;;;;;;29.00;14.10;;;10.50;99.90;;;;;;5072642;28;20260;-81
2022/11/26 12:13:13;;;;;;;27.00;13.87;;;10.60;99.90;;;;;;5069912;28;20289;-82
2022/11/26 12:15:50;;;;;;;26.33;14.03;;;10.60;99.90;;;;;;5081489;28;20207;-81
2022/11/26 12:18:25;;;;;;;26.13;13.30;;;10.90;99.90;;;;;;5070850;28;20229;-80
2022/11/26 12:20:55;;;;;;;22.53;11.93;;;11.20;99.90;;;;;;5062287;28;20222;-80
2022/11/26 12:23:29;;;;;;;27.47;12.60;;;11.10;99.90;;;;;;5068189;28;20213;-81
2022/11/26 12:26:05;;;;;;;27.20;12.27;;;11.10;99.90;;;;;;5075201;28;20221;-82
2022/11/26 12:28:37;;;;;;;22.73;11.03;;;11.00;99.90;;;;;;5061294;28;20276;-82
2022/11/26 12:31:08;;;;;;;23.47;11.27;;;11.20;99.90;;;;;;5073441;28;20569;-81
2022/11/26 12:33:40;;;;;;;26.43;11.83;;;11.70;99.90;;;;;;5075151;28;20285;-81
2022/11/26 12:36:15;;;;;;;23.43;10.90;;;11.60;99.90;;;;;;5067588;28;20286;-81
2022/11/26 12:38:47;;;;;;;25.57;11.73;;;11.40;99.90;;;;;;5071929;28;20217;-81
2022/11/26 12:41:20;;;;;;;20.73;11.00;;;11.40;99.90;;;;;;5065934;28;20572;-80
2022/11/26 12:43:51;;;;;;;24.27;10.83;;;11.50;99.90;;;;;;5065386;28;20209;-82
2022/11/26 12:46:22;;;;;;;18.33;9.63;;;11.00;99.90;;;;;;5069861;28;20246;-82
2022/11/26 12:48:54;;;;;;;19.03;9.63;;;10.80;99.90;;;;;;5072409;28;20226;-84
2022/11/26 12:51:28;;;;;;;21.63;10.10;;;11.10;99.90;;;;;;5067218;28;20833;-82
2022/11/26 12:54:10;;;;;;;21.37;10.30;;;11.20;99.90;;;;;;5071588;28;20267;-82